createdAt,value
2019-02-05T00:00:12.161Z,101649.16
2019-02-05T00:02:39.118Z,101645.98
2019-02-05T00:05:06.122Z,101650.83
2019-02-05T00:07:33.092Z,101653.80
2019-02-05T00:10:00.020Z,101653.31
2019-02-05T00:12:26.989Z,101652.62
2019-02-05T00:14:54.114Z,101658.31
2019-02-05T00:17:21.082Z,101658.70
2019-02-05T00:19:48.197Z,101665.90
2019-02-05T00:22:15.154Z,101665.59
2019-02-05T00:24:42.345Z,101661.21
2019-02-05T00:27:09.297Z,101652.89
2019-02-05T00:29:36.232Z,101653.09
2019-02-05T00:32:03.308Z,101659.19
2019-02-05T00:34:30.222Z,101673.25
2019-02-05T00:36:57.154Z,101668.71
2019-02-05T00:39:24.054Z,101666.83
2019-02-05T00:41:51.371Z,101664.72
2019-02-05T00:44:18.302Z,101668.07
2019-02-05T00:46:45.238Z,101660.67
2019-02-05T00:49:12.151Z,101679.63
2019-02-05T00:51:39.086Z,101680.38
2019-02-05T00:54:06.176Z,101678.84
2019-02-05T00:56:33.118Z,101679.75
2019-02-05T00:58:59.995Z,101683.20
2019-02-05T01:01:27.107Z,101675.64
2019-02-05T01:03:54.021Z,101675.45
2019-02-05T01:06:20.918Z,101674.10
2019-02-05T01:08:47.842Z,101676.25
2019-02-05T01:11:14.724Z,101680.13
2019-02-05T01:13:41.905Z,101694.05
2019-02-05T01:16:08.808Z,101689.79
2019-02-05T01:18:36.129Z,101694.75
2019-02-05T01:21:03.451Z,101686.63
2019-02-05T01:23:30.430Z,101682.96
2019-02-05T01:25:57.306Z,101691.08
2019-02-05T01:28:24.248Z,101695.11
2019-02-05T01:30:51.230Z,101706.34
2019-02-05T01:33:18.153Z,101703.61
2019-02-05T01:35:45.354Z,101699.35
2019-02-05T01:38:12.336Z,101697.57
2019-02-05T01:40:39.323Z,101692.27
2019-02-05T01:43:06.275Z,101688.59
2019-02-05T01:45:33.166Z,101689.83
2019-02-05T01:48:00.103Z,101693.77
2019-02-05T01:50:27.765Z,101688.39
2019-02-05T01:52:54.710Z,101689.41
2019-02-05T01:55:22.091Z,101683.66
2019-02-05T01:57:49.032Z,101681.35
2019-02-05T02:00:18.597Z,101686.00
2019-02-05T02:02:45.635Z,101674.89
2019-02-05T02:05:12.942Z,101686.83
2019-02-05T02:07:39.829Z,101693.19
2019-02-05T02:10:08.343Z,101700.09
2019-02-05T02:12:35.427Z,101706.76
2019-02-05T02:15:03.609Z,101708.34
2019-02-05T02:17:30.647Z,101705.63
2019-02-05T02:19:57.567Z,101703.89
2019-02-05T02:22:24.470Z,101710.30
2019-02-05T02:24:51.430Z,101699.82
2019-02-05T02:27:18.376Z,101695.56
2019-02-05T02:29:45.757Z,101688.26
2019-02-05T02:32:12.664Z,101687.80
2019-02-05T02:34:39.634Z,101684.09
2019-02-05T02:37:06.532Z,101693.97
2019-02-05T02:39:33.463Z,101698.51
2019-02-05T02:42:00.351Z,101691.69
2019-02-05T02:44:27.267Z,101694.70
2019-02-05T02:46:54.210Z,101702.25
2019-02-05T02:49:21.451Z,101698.66
2019-02-05T02:51:48.335Z,101698.66
2019-02-05T02:54:15.268Z,101700.09
2019-02-05T02:56:42.160Z,101704.98
2019-02-05T02:59:09.099Z,101703.25
2019-02-05T03:01:36.074Z,101700.43
2019-02-05T03:04:03.181Z,101698.08
2019-02-05T03:06:30.069Z,101704.77
2019-02-05T03:08:57.247Z,101708.22
2019-02-05T03:11:24.168Z,101712.88
2019-02-05T03:13:51.143Z,101716.67
2019-02-05T03:16:18.030Z,101710.94
2019-02-05T03:18:45.048Z,101717.81
2019-02-05T03:21:11.942Z,101717.45
2019-02-05T03:23:38.867Z,101713.17
2019-02-05T03:26:05.756Z,101708.91
2019-02-05T03:28:32.673Z,101709.78
2019-02-05T03:31:00.089Z,101705.62
2019-02-05T03:33:27.045Z,101704.48
2019-02-05T03:35:53.920Z,101708.94
2019-02-05T03:38:20.822Z,101714.16
2019-02-05T03:41:07.872Z,101713.81
2019-02-05T03:43:39.450Z,101714.00
2019-02-05T03:46:29.279Z,101714.00
2019-02-05T03:48:56.876Z,101715.46
2019-02-05T03:51:43.831Z,101714.39
2019-02-05T03:54:27.116Z,101710.07
2019-02-05T03:57:09.265Z,101716.27
2019-02-05T03:59:55.111Z,101715.10
2019-02-05T04:02:53.201Z,101715.97
2019-02-05T04:05:42.345Z,101703.59
2019-02-05T04:08:53.954Z,101709.41
2019-02-05T04:11:47.525Z,101716.31
2019-02-05T04:14:44.173Z,101709.42
2019-02-05T04:18:03.683Z,101715.53
2019-02-05T04:21:08.494Z,101713.66
2019-02-05T04:24:12.040Z,101706.35
2019-02-05T04:27:04.423Z,101714.16
2019-02-05T04:29:51.834Z,101711.14
2019-02-05T04:32:59.462Z,101709.48
2019-02-05T04:36:08.660Z,101705.11
2019-02-05T04:39:13.259Z,101699.09
2019-02-05T04:42:27.777Z,101699.71
2019-02-05T04:45:16.810Z,101704.75
2019-02-05T04:48:01.327Z,101703.88
2019-02-05T04:50:51.591Z,101701.11
2019-02-05T04:53:42.495Z,101707.05
2019-02-05T04:56:38.318Z,101707.05
2019-02-05T04:59:47.467Z,101708.11
2019-02-05T05:03:12.626Z,101710.22
2019-02-05T05:06:33.674Z,101708.27
2019-02-05T05:09:34.069Z,101707.41
2019-02-05T05:12:01.031Z,101709.72
2019-02-05T05:14:27.941Z,101715.94
2019-02-05T05:16:54.935Z,101715.33
2019-02-05T05:19:22.123Z,101723.55
2019-02-05T05:21:49.642Z,101729.44
2019-02-05T05:24:17.044Z,101728.45
2019-02-05T05:26:44.117Z,101732.61
2019-02-05T05:29:11.013Z,101733.27
2019-02-05T05:31:37.936Z,101735.61
2019-02-05T05:34:04.827Z,101731.89
2019-02-05T05:36:31.773Z,101731.91
2019-02-05T05:38:58.999Z,101734.56
2019-02-05T05:41:26.003Z,101741.44
2019-02-05T05:43:52.883Z,101732.78
2019-02-05T05:46:19.876Z,101735.36
2019-02-05T05:48:46.877Z,101750.72
2019-02-05T05:51:13.801Z,101743.88
2019-02-05T05:53:40.808Z,101741.45
2019-02-05T05:56:07.907Z,101738.95
2019-02-05T05:58:35.153Z,101743.52
2019-02-05T06:01:02.198Z,101741.72
2019-02-05T06:03:29.060Z,101741.96
2019-02-05T06:05:55.969Z,101751.92
2019-02-05T06:08:23.225Z,101747.47
2019-02-05T06:10:50.127Z,101752.94
2019-02-05T06:13:17.050Z,101757.83
2019-02-05T06:15:44.010Z,101766.34
2019-02-05T06:18:11.463Z,101764.58
2019-02-05T06:20:38.399Z,101766.27
2019-02-05T06:23:05.374Z,101722.13
2019-02-05T06:25:32.247Z,101764.72
2019-02-05T06:27:59.156Z,101768.36
2019-02-05T06:30:26.076Z,101771.32
2019-02-05T06:32:53.022Z,101769.53
2019-02-05T06:35:19.908Z,101762.05
2019-02-05T06:37:46.884Z,101768.95
2019-02-05T06:40:16.670Z,101762.98
2019-02-05T06:42:43.768Z,101763.87
2019-02-05T06:45:12.058Z,101773.11
2019-02-05T06:47:38.996Z,101767.00
2019-02-05T06:50:06.924Z,101779.31
2019-02-05T06:52:33.907Z,101780.73
2019-02-05T06:55:00.804Z,101779.37
2019-02-05T06:57:28.024Z,101784.97
2019-02-05T06:59:54.885Z,101785.38
2019-02-05T07:02:21.791Z,101793.95
2019-02-05T07:04:48.670Z,101793.34
2019-02-05T07:07:15.611Z,101795.50
2019-02-05T07:09:42.490Z,101800.47
2019-02-05T07:12:09.478Z,101810.75
2019-02-05T07:14:36.419Z,101808.66
2019-02-05T07:17:04.184Z,101815.11
2019-02-05T07:19:31.090Z,101826.69
2019-02-05T07:21:58.012Z,101822.59
2019-02-05T07:24:25.566Z,101817.83
2019-02-05T07:26:52.510Z,101822.66
2019-02-05T07:29:19.391Z,101820.72
2019-02-05T07:31:46.300Z,101818.93
2019-02-05T07:34:13.237Z,101824.45
2019-02-05T07:36:40.400Z,101822.36
2019-02-05T07:39:08.184Z,101827.69
2019-02-05T07:41:36.044Z,101824.66
2019-02-05T07:44:02.993Z,101825.98
2019-02-05T07:46:29.911Z,101839.69
2019-02-05T07:48:56.839Z,101837.17
2019-02-05T07:51:23.749Z,101833.67
2019-02-05T07:53:50.869Z,101834.73
2019-02-05T07:56:17.898Z,101847.26
2019-02-05T07:58:44.858Z,101848.53
2019-02-05T08:01:12.146Z,101854.73
2019-02-05T08:03:40.831Z,101852.83
2019-02-05T08:06:08.358Z,101854.08
2019-02-05T08:08:35.907Z,101859.05
2019-02-05T08:11:04.973Z,101867.94
2019-02-05T08:13:31.997Z,101872.38
2019-02-05T08:15:58.901Z,101866.46
2019-02-05T08:18:25.838Z,101870.94
2019-02-05T08:20:52.843Z,101872.22
2019-02-05T08:23:20.231Z,101878.91
2019-02-05T08:25:47.122Z,101879.86
2019-02-05T08:28:14.201Z,101885.52
2019-02-05T08:30:43.741Z,101893.93
2019-02-05T08:33:10.746Z,101892.69
2019-02-05T08:35:37.662Z,101899.09
2019-02-05T08:38:04.719Z,101905.52
2019-02-05T08:40:31.651Z,101903.84
2019-02-05T08:42:58.538Z,101911.53
2019-02-05T08:45:27.340Z,101908.84
2019-02-05T08:47:54.272Z,101912.47
2019-02-05T08:50:22.957Z,101916.25
2019-02-05T08:52:50.030Z,101911.75
2019-02-05T08:55:17.934Z,101927.00
2019-02-05T08:57:45.124Z,101912.84
2019-02-05T09:00:20.998Z,101911.99
2019-02-05T09:02:48.500Z,101915.66
2019-02-05T09:05:15.944Z,101924.50
2019-02-05T09:07:42.846Z,101925.63
2019-02-05T09:10:12.455Z,101923.51
2019-02-05T09:12:39.470Z,101935.02
2019-02-05T09:15:08.623Z,101929.25
2019-02-05T09:17:35.528Z,101929.88
2019-02-05T09:20:03.670Z,101936.33
2019-02-05T09:22:30.561Z,101931.34
2019-02-05T09:24:57.506Z,101937.88
2019-02-05T09:27:24.514Z,101934.00
2019-02-05T09:29:51.576Z,101942.42
2019-02-05T09:32:19.190Z,101943.80
2019-02-05T09:34:46.141Z,101950.39
2019-02-05T09:37:13.259Z,101952.51
2019-02-05T09:39:40.186Z,101950.87
2019-02-05T09:42:07.335Z,101949.37
2019-02-05T09:44:34.304Z,101958.45
2019-02-05T09:47:01.275Z,101958.13
2019-02-05T09:49:28.204Z,101953.75
2019-02-05T09:51:55.110Z,101956.86
2019-02-05T09:54:22.129Z,101960.73
2019-02-05T09:56:49.112Z,101959.50
2019-02-05T09:59:16.041Z,101964.55
2019-02-05T10:01:43.602Z,101966.56
2019-02-05T10:04:10.528Z,101972.50
2019-02-05T10:06:37.544Z,101969.22
2019-02-05T10:09:07.040Z,101972.77
2019-02-05T10:11:34.442Z,101971.97
2019-02-05T10:14:01.850Z,101982.67
2019-02-05T10:16:28.786Z,101982.33
2019-02-05T10:18:55.755Z,101982.91
2019-02-05T10:21:22.883Z,101973.20
2019-02-05T10:23:49.959Z,101975.34
2019-02-05T10:26:17.013Z,101977.44
2019-02-05T10:28:43.899Z,101984.64
2019-02-05T10:31:10.900Z,101981.06
2019-02-05T10:33:37.876Z,101985.17
2019-02-05T10:36:05.143Z,101987.67
2019-02-05T10:38:32.287Z,101989.87
2019-02-05T10:40:59.332Z,101984.94
2019-02-05T10:43:26.435Z,101994.64
2019-02-05T10:45:53.385Z,101995.20
2019-02-05T10:48:20.345Z,101998.38
2019-02-05T10:50:47.598Z,101994.43
2019-02-05T10:53:14.519Z,101994.20
2019-02-05T10:55:41.425Z,101993.91
2019-02-05T10:58:08.643Z,101993.42
2019-02-05T11:00:35.583Z,101994.94
2019-02-05T11:03:04.852Z,101997.70
2019-02-05T11:05:32.854Z,101989.32
2019-02-05T11:07:59.898Z,101992.27
2019-02-05T11:10:26.942Z,101989.34
2019-02-05T11:12:53.990Z,101989.30
2019-02-05T11:15:30.920Z,101982.83
2019-02-05T11:17:58.299Z,101979.98
2019-02-05T11:20:26.343Z,101988.09
2019-02-05T11:22:53.334Z,101979.31
2019-02-05T11:25:20.310Z,101983.79
2019-02-05T11:27:47.243Z,101977.25
2019-02-05T11:30:22.234Z,101976.83
2019-02-05T11:32:49.302Z,101968.26
2019-02-05T11:35:16.302Z,101967.83
2019-02-05T11:37:43.289Z,101977.95
2019-02-05T11:40:13.637Z,101973.48
2019-02-05T11:42:40.585Z,101973.95
2019-02-05T11:45:09.457Z,101971.14
2019-02-05T11:47:36.472Z,101967.59
2019-02-05T11:50:05.052Z,101970.83
2019-02-05T11:52:32.028Z,101971.72
2019-02-05T11:54:59.060Z,101970.19
2019-02-05T11:57:26.279Z,101964.07
2019-02-05T11:59:53.245Z,101967.97
2019-02-05T12:02:20.219Z,101970.19
2019-02-05T12:04:47.372Z,101963.30
2019-02-05T12:07:14.385Z,101970.20
2019-02-05T12:09:41.642Z,101970.77
2019-02-05T12:12:08.601Z,101972.57
2019-02-05T12:14:35.545Z,101965.08
2019-02-05T12:17:02.553Z,101966.41
2019-02-05T12:19:29.965Z,101964.53
2019-02-05T12:21:57.157Z,101961.56
2019-02-05T12:24:24.202Z,101959.70
2019-02-05T12:26:51.111Z,101956.83
2019-02-05T12:29:18.127Z,101961.41
2019-02-05T12:31:45.073Z,101963.06
2019-02-05T12:34:12.332Z,101970.42
2019-02-05T12:36:41.203Z,101966.30
2019-02-05T12:39:17.070Z,101958.34
2019-02-05T12:41:44.628Z,101961.91
2019-02-05T12:44:11.582Z,101956.61
2019-02-05T12:46:38.609Z,101958.20
2019-02-05T12:49:05.596Z,101953.51
2019-02-05T12:51:32.489Z,101959.13
2019-02-05T12:53:59.458Z,101956.39
2019-02-05T12:56:26.413Z,101958.77
2019-02-05T12:58:53.372Z,101964.31
2019-02-05T13:01:20.536Z,101970.42
2019-02-05T13:03:47.460Z,101976.88
2019-02-05T13:06:14.923Z,101969.63
2019-02-05T13:08:41.959Z,101975.53
2019-02-05T13:11:08.963Z,101982.28
2019-02-05T13:13:36.054Z,101986.88
2019-02-05T13:16:03.280Z,101984.71
2019-02-05T13:18:30.491Z,101977.88
2019-02-05T13:20:57.407Z,101983.08
2019-02-05T13:23:24.751Z,101989.20
2019-02-05T13:25:53.132Z,101990.05
2019-02-05T13:28:20.308Z,101994.71
2019-02-05T13:30:47.217Z,101994.92
2019-02-05T13:33:15.827Z,101989.66
2019-02-05T13:35:43.144Z,101997.59
2019-02-05T13:38:10.138Z,101991.32
2019-02-05T13:40:37.359Z,101990.35
2019-02-05T13:43:05.308Z,101993.42
2019-02-05T13:45:33.316Z,102011.47
2019-02-05T13:48:00.759Z,101996.83
2019-02-05T13:50:33.051Z,101991.27
2019-02-05T13:52:58.901Z,101998.66
2019-02-05T13:55:31.381Z,101995.73
2019-02-05T13:57:58.507Z,101992.66
2019-02-05T14:00:33.787Z,101993.00
2019-02-05T14:03:00.687Z,101992.70
2019-02-05T14:05:28.333Z,101989.98
2019-02-05T14:07:59.535Z,101992.78
2019-02-05T14:10:29.759Z,101994.87
2019-02-05T14:12:57.582Z,101994.85
2019-02-05T14:15:27.375Z,101974.95
2019-02-05T14:17:54.572Z,102003.00
2019-02-05T14:20:22.108Z,102007.73
2019-02-05T14:22:49.041Z,101999.45
2019-02-05T14:25:16.030Z,102000.20
2019-02-05T14:27:43.106Z,102000.84
2019-02-05T14:30:22.674Z,102003.92
2019-02-05T14:32:49.873Z,102005.09
2019-02-05T14:35:17.369Z,102005.38
2019-02-05T14:37:44.302Z,101997.17
2019-02-05T14:40:13.495Z,101999.56
2019-02-05T14:42:40.647Z,102018.09
2019-02-05T14:45:09.019Z,102004.88
2019-02-05T14:47:36.007Z,102000.77
2019-02-05T14:50:05.246Z,101997.08
2019-02-05T14:52:32.708Z,102009.74
2019-02-05T14:55:00.361Z,102005.28
2019-02-05T14:57:27.417Z,102002.14
2019-02-05T14:59:55.960Z,102003.85
2019-02-05T15:02:22.932Z,102007.46
2019-02-05T15:04:49.896Z,102008.47
2019-02-05T15:07:17.091Z,102013.29
2019-02-05T15:09:46.297Z,102009.18
2019-02-05T15:12:13.208Z,102010.63
2019-02-05T15:14:40.215Z,102011.92
2019-02-05T15:17:07.233Z,102007.24
2019-02-05T15:19:34.236Z,102012.00
2019-02-05T15:22:01.275Z,102009.98
2019-02-05T15:24:37.215Z,102008.96
2019-02-05T15:26:57.002Z,102009.27
2019-02-05T15:29:23.912Z,102008.53
2019-02-05T15:31:54.536Z,102001.70
2019-02-05T15:34:22.722Z,102006.58
2019-02-05T15:36:50.505Z,102005.93
2019-02-05T15:39:17.462Z,101998.39
2019-02-05T15:41:44.468Z,102007.91
2019-02-05T15:44:11.714Z,102005.22
2019-02-05T15:46:38.685Z,102017.38
2019-02-05T15:49:05.580Z,102004.66
2019-02-05T15:51:32.569Z,102001.14
2019-02-05T15:53:59.503Z,102000.92
2019-02-05T15:56:26.469Z,102003.44
2019-02-05T15:58:53.393Z,102003.37
2019-02-05T16:01:20.445Z,102003.72
2019-02-05T16:03:47.410Z,102004.92
2019-02-05T16:06:14.395Z,102000.78
2019-02-05T16:08:41.316Z,102009.02
2019-02-05T16:11:08.296Z,102014.08
2019-02-05T16:13:35.214Z,102010.68
2019-02-05T16:16:02.185Z,101999.13
2019-02-05T16:18:29.113Z,101997.69
2019-02-05T16:20:56.471Z,101995.61
2019-02-05T16:23:23.370Z,101993.95
2019-02-05T16:25:50.325Z,101991.91
2019-02-05T16:28:17.258Z,101996.52
2019-02-05T16:30:44.298Z,101996.59
2019-02-05T16:33:11.317Z,102008.76
2019-02-05T16:35:38.268Z,102009.33
2019-02-05T16:38:05.270Z,102004.42
2019-02-05T16:40:32.815Z,102011.21
2019-02-05T16:42:59.733Z,102008.55
2019-02-05T16:45:27.110Z,102014.45
2019-02-05T16:47:55.036Z,102014.02
2019-02-05T16:50:24.475Z,102015.80
2019-02-05T16:52:52.134Z,102015.49
2019-02-05T16:55:19.055Z,102020.20
2019-02-05T16:57:46.609Z,102014.28
2019-02-05T17:00:19.900Z,102014.94
2019-02-05T17:02:46.831Z,102017.82
2019-02-05T17:05:14.301Z,102019.45
2019-02-05T17:07:41.244Z,102020.17
2019-02-05T17:10:09.638Z,102014.13
2019-02-05T17:12:36.595Z,102014.38
2019-02-05T17:15:05.655Z,102009.84
2019-02-05T17:17:32.625Z,102005.66
2019-02-05T17:19:59.543Z,102001.33
2019-02-05T17:22:26.512Z,102007.30
2019-02-05T17:24:53.428Z,102006.95
2019-02-05T17:27:20.414Z,102008.67
2019-02-05T17:29:50.086Z,102004.96
2019-02-05T17:32:16.188Z,102006.36
2019-02-05T17:34:43.120Z,102010.74
2019-02-05T17:37:10.069Z,102007.23
2019-02-05T17:39:37.016Z,102005.14
2019-02-05T17:42:04.072Z,102001.25
2019-02-05T17:44:31.029Z,102005.06
2019-02-05T17:46:58.092Z,102002.05
2019-02-05T17:49:24.968Z,102000.59
2019-02-05T17:51:52.106Z,102001.91
2019-02-05T17:54:19.013Z,101999.58
2019-02-05T17:56:45.929Z,101990.19
2019-02-05T17:59:12.808Z,101988.89
2019-02-05T18:01:39.757Z,101996.37
2019-02-05T18:04:06.668Z,101986.80
2019-02-05T18:06:33.592Z,101998.82
2019-02-05T18:09:00.905Z,101996.61
2019-02-05T18:11:27.864Z,101993.89
2019-02-05T18:13:54.788Z,101996.00
2019-02-05T18:16:21.730Z,101995.44
2019-02-05T18:18:48.647Z,101988.66
2019-02-05T18:21:15.660Z,101988.66
2019-02-05T18:23:42.593Z,101989.09
2019-02-05T18:26:09.529Z,101990.02
2019-02-05T18:28:36.783Z,101986.06
2019-02-05T18:31:03.757Z,101985.08
2019-02-05T18:33:30.694Z,101976.93
2019-02-05T18:35:57.587Z,101979.75
2019-02-05T18:38:24.697Z,101986.55
2019-02-05T18:40:51.751Z,101981.36
2019-02-05T18:43:18.716Z,101978.78
2019-02-05T18:45:45.635Z,101981.91
2019-02-05T18:48:12.598Z,101975.27
2019-02-05T18:50:39.806Z,101977.55
2019-02-05T18:53:06.747Z,101977.91
2019-02-05T18:55:34.069Z,101976.12
2019-02-05T18:58:08.900Z,101977.28
2019-02-05T19:00:32.156Z,101984.03
2019-02-05T19:02:59.394Z,101983.52
2019-02-05T19:05:26.822Z,101984.70
2019-02-05T19:07:53.905Z,101977.28
2019-02-05T19:10:22.835Z,101982.34
2019-02-05T19:12:49.805Z,101977.73
2019-02-05T19:15:22.140Z,101970.30
2019-02-05T19:17:49.113Z,101977.16
2019-02-05T19:20:16.250Z,101969.68
2019-02-05T19:22:43.223Z,101967.83
2019-02-05T19:25:18.048Z,101971.48
2019-02-05T19:27:45.006Z,101967.55
2019-02-05T19:30:12.310Z,101974.53
2019-02-05T19:32:39.281Z,101977.77
2019-02-05T19:35:07.212Z,101969.34
2019-02-05T19:37:34.637Z,101973.45
2019-02-05T19:40:01.565Z,101980.23
2019-02-05T19:42:28.528Z,101976.49
2019-02-05T19:45:07.771Z,101974.39
2019-02-05T19:47:34.883Z,101977.45
2019-02-05T19:50:02.514Z,101979.71
2019-02-05T19:52:29.726Z,101982.97
2019-02-05T19:54:56.731Z,101990.72
2019-02-05T19:57:23.655Z,101986.55
2019-02-05T19:59:50.949Z,101986.97
2019-02-05T20:02:17.891Z,101985.98
2019-02-05T20:04:44.863Z,101983.46
2019-02-05T20:07:11.843Z,101984.09
2019-02-05T20:09:39.007Z,101986.98
2019-02-05T20:12:06.370Z,101979.37
2019-02-05T20:14:33.362Z,101984.39
2019-02-05T20:17:01.057Z,101985.98
2019-02-05T20:19:28.013Z,101983.51
2019-02-05T20:21:54.942Z,101985.69
2019-02-05T20:24:21.977Z,101985.81
2019-02-05T20:26:48.880Z,101982.36
2019-02-05T20:29:15.831Z,101979.63
2019-02-05T20:31:42.727Z,101990.56
2019-02-05T20:34:10.152Z,101983.52
2019-02-05T20:36:37.439Z,101982.41
2019-02-05T20:39:11.131Z,101989.33
2019-02-05T20:41:38.143Z,101991.04
2019-02-05T20:44:05.055Z,101988.95
2019-02-05T20:46:31.928Z,101986.91
2019-02-05T20:48:58.919Z,101996.48
2019-02-05T20:51:25.815Z,101985.56
2019-02-05T20:53:52.761Z,101989.83
2019-02-05T20:56:20.082Z,101987.71
2019-02-05T20:58:47.039Z,101990.55
2019-02-05T21:01:13.936Z,101981.84
2019-02-05T21:03:40.923Z,101982.28
2019-02-05T21:06:07.852Z,101977.55
2019-02-05T21:08:34.882Z,101979.70
2019-02-05T21:11:01.798Z,101981.49
2019-02-05T21:13:28.733Z,101980.93
2019-02-05T21:15:55.706Z,101981.73
2019-02-05T21:18:22.936Z,101971.61
2019-02-05T21:20:49.854Z,101979.44
2019-02-05T21:23:16.780Z,101984.56
2019-02-05T21:25:43.711Z,101979.81
2019-02-05T21:28:10.657Z,101985.26
2019-02-05T21:30:37.600Z,101989.45
2019-02-05T21:33:04.514Z,101979.81
2019-02-05T21:35:31.440Z,101990.87
2019-02-05T21:37:58.683Z,101991.48
2019-02-05T21:40:25.699Z,101988.78
2019-02-05T21:42:52.622Z,101988.58
2019-02-05T21:45:20.671Z,101987.41
2019-02-05T21:47:47.617Z,101977.64
2019-02-05T21:50:16.654Z,101973.11
2019-02-05T21:52:43.762Z,101975.28
2019-02-05T21:55:11.509Z,101978.72
2019-02-05T21:57:38.597Z,101976.45
2019-02-05T22:00:15.544Z,101981.56
2019-02-05T22:02:42.586Z,101980.67
2019-02-05T22:05:09.538Z,101980.61
2019-02-05T22:07:36.425Z,101981.94
2019-02-05T22:10:04.713Z,101984.42
2019-02-05T22:12:31.571Z,101984.00
2019-02-05T22:14:58.525Z,101985.24
2019-02-05T22:17:25.642Z,101977.02
2019-02-05T22:19:52.603Z,101968.31
2019-02-05T22:22:19.488Z,101965.06
2019-02-05T22:24:46.425Z,101970.55
2019-02-05T22:27:13.540Z,101976.52
2019-02-05T22:29:40.468Z,101979.39
2019-02-05T22:32:07.382Z,101985.39
2019-02-05T22:34:39.323Z,101989.73
2019-02-05T22:37:03.731Z,101990.84
2019-02-05T22:39:31.126Z,101990.71
2019-02-05T22:41:58.025Z,101984.61
2019-02-05T22:44:24.934Z,101987.10
2019-02-05T22:46:52.155Z,101984.38
2019-02-05T22:49:19.074Z,101988.95
2019-02-05T22:51:46.498Z,101985.75
2019-02-05T22:54:13.405Z,101975.41
2019-02-05T22:56:40.331Z,101974.31
2019-02-05T22:59:07.638Z,101966.88
2019-02-05T23:01:58.174Z,101970.49
2019-02-05T23:05:07.704Z,101965.73
2019-02-05T23:07:34.771Z,101961.87
2019-02-05T23:10:25.704Z,101961.05
2019-02-05T23:12:58.645Z,101959.25
2019-02-05T23:15:28.963Z,101959.64
2019-02-05T23:17:55.214Z,101951.05
2019-02-05T23:20:22.825Z,101950.33
2019-02-05T23:22:50.111Z,101954.12
2019-02-05T23:25:17.052Z,101942.63
2019-02-05T23:27:43.935Z,101937.82
2019-02-05T23:30:14.313Z,101937.94
2019-02-05T23:32:41.240Z,101933.70
2019-02-05T23:35:08.531Z,101929.23
2019-02-05T23:37:35.444Z,101931.20
2019-02-05T23:40:04.446Z,101930.01
2019-02-05T23:42:31.409Z,101939.53
2019-02-05T23:44:58.309Z,101945.30
2019-02-05T23:47:25.249Z,101948.08
2019-02-05T23:49:52.153Z,101943.83
2019-02-05T23:52:19.071Z,101939.53
2019-02-05T23:54:45.990Z,101934.34
2019-02-05T23:57:13.018Z,101929.31
2019-02-05T23:59:40.260Z,101923.44
